sensor_id;sensor_type;location;lat;lon;timestamp;P1;durP1;ratioP1;P2;durP2;ratioP2
41115;SDS011;26861;51.824;4.682;2023-02-07T00:00:18;5.90;;;2.78;;
41115;SDS011;26861;51.824;4.682;2023-02-07T00:02:45;6.28;;;2.70;;
41115;SDS011;26861;51.824;4.682;2023-02-07T00:05:12;6.82;;;3.00;;
41115;SDS011;26861;51.824;4.682;2023-02-07T00:07:39;5.88;;;2.67;;
41115;SDS011;26861;51.824;4.682;2023-02-07T00:10:05;6.57;;;3.15;;
41115;SDS011;26861;51.824;4.682;2023-02-07T00:12:32;3.40;;;2.47;;
41115;SDS011;26861;51.824;4.682;2023-02-07T00:14:58;7.38;;;2.92;;
41115;SDS011;26861;51.824;4.682;2023-02-07T00:17:24;5.97;;;3.05;;
41115;SDS011;26861;51.824;4.682;2023-02-07T00:19:49;5.22;;;2.70;;
41115;SDS011;26861;51.824;4.682;2023-02-07T00:22:15;4.28;;;2.30;;
41115;SDS011;26861;51.824;4.682;2023-02-07T00:24:41;4.82;;;2.28;;
41115;SDS011;26861;51.824;4.682;2023-02-07T00:27:06;4.47;;;2.58;;
41115;SDS011;26861;51.824;4.682;2023-02-07T00:29:32;5.65;;;2.70;;
41115;SDS011;26861;51.824;4.682;2023-02-07T00:31:58;4.88;;;2.35;;
41115;SDS011;26861;51.824;4.682;2023-02-07T00:34:23;4.15;;;2.85;;
41115;SDS011;26861;51.824;4.682;2023-02-07T00:36:49;5.82;;;2.83;;
41115;SDS011;26861;51.824;4.682;2023-02-07T00:39:16;3.28;;;2.10;;
41115;SDS011;26861;51.824;4.682;2023-02-07T00:41:42;3.50;;;2.30;;
41115;SDS011;26861;51.824;4.682;2023-02-07T00:44:09;4.65;;;2.50;;
41115;SDS011;26861;51.824;4.682;2023-02-07T00:46:36;3.92;;;2.53;;
41115;SDS011;26861;51.824;4.682;2023-02-07T00:49:03;6.25;;;2.70;;
41115;SDS011;26861;51.824;4.682;2023-02-07T00:51:30;4.40;;;2.40;;
41115;SDS011;26861;51.824;4.682;2023-02-07T00:53:57;5.70;;;2.65;;
41115;SDS011;26861;51.824;4.682;2023-02-07T00:56:24;3.47;;;2.45;;
41115;SDS011;26861;51.824;4.682;2023-02-07T00:58:52;3.65;;;2.53;;
41115;SDS011;26861;51.824;4.682;2023-02-07T01:01:18;5.00;;;2.22;;
41115;SDS011;26861;51.824;4.682;2023-02-07T01:03:45;3.13;;;2.20;;
41115;SDS011;26861;51.824;4.682;2023-02-07T01:06:11;4.88;;;2.55;;
41115;SDS011;26861;51.824;4.682;2023-02-07T01:08:37;4.68;;;2.65;;
41115;SDS011;26861;51.824;4.682;2023-02-07T01:11:07;4.85;;;2.60;;
41115;SDS011;26861;51.824;4.682;2023-02-07T01:13:34;3.63;;;2.25;;
41115;SDS011;26861;51.824;4.682;2023-02-07T01:16:01;4.55;;;2.40;;
41115;SDS011;26861;51.824;4.682;2023-02-07T01:18:26;4.00;;;2.30;;
41115;SDS011;26861;51.824;4.682;2023-02-07T01:20:52;3.15;;;2.15;;
41115;SDS011;26861;51.824;4.682;2023-02-07T01:23:18;3.47;;;2.17;;
41115;SDS011;26861;51.824;4.682;2023-02-07T01:25:44;4.78;;;2.35;;
41115;SDS011;26861;51.824;4.682;2023-02-07T01:28:10;4.85;;;2.47;;
41115;SDS011;26861;51.824;4.682;2023-02-07T01:30:37;3.33;;;2.00;;
41115;SDS011;26861;51.824;4.682;2023-02-07T01:33:04;3.45;;;2.25;;
41115;SDS011;26861;51.824;4.682;2023-02-07T01:35:30;3.88;;;2.20;;
41115;SDS011;26861;51.824;4.682;2023-02-07T01:37:55;2.72;;;2.20;;
41115;SDS011;26861;51.824;4.682;2023-02-07T01:40:23;3.00;;;2.05;;
41115;SDS011;26861;51.824;4.682;2023-02-07T01:42:51;3.53;;;2.20;;
41115;SDS011;26861;51.824;4.682;2023-02-07T01:47:59;3.88;;;1.98;;
41115;SDS011;26861;51.824;4.682;2023-02-07T01:50:28;3.60;;;2.25;;
41115;SDS011;26861;51.824;4.682;2023-02-07T01:52:55;4.45;;;2.10;;
41115;SDS011;26861;51.824;4.682;2023-02-07T01:55:24;3.78;;;2.65;;
41115;SDS011;26861;51.824;4.682;2023-02-07T01:57:52;4.28;;;2.30;;
41115;SDS011;26861;51.824;4.682;2023-02-07T02:00:18;3.67;;;2.33;;
41115;SDS011;26861;51.824;4.682;2023-02-07T02:02:44;3.10;;;1.90;;
41115;SDS011;26861;51.824;4.682;2023-02-07T02:05:10;2.53;;;2.10;;
41115;SDS011;26861;51.824;4.682;2023-02-07T02:07:37;3.08;;;2.03;;
41115;SDS011;26861;51.824;4.682;2023-02-07T02:10:12;4.07;;;1.85;;
41115;SDS011;26861;51.824;4.682;2023-02-07T02:12:52;3.33;;;2.08;;
41115;SDS011;26861;51.824;4.682;2023-02-07T02:15:43;5.22;;;2.40;;
41115;SDS011;26861;51.824;4.682;2023-02-07T02:18:30;4.63;;;2.10;;
41115;SDS011;26861;51.824;4.682;2023-02-07T02:27:29;4.30;;;2.00;;
41115;SDS011;26861;51.824;4.682;2023-02-07T02:38:47;3.80;;;2.17;;
41115;SDS011;26861;51.824;4.682;2023-02-07T02:41:21;3.47;;;2.38;;
41115;SDS011;26861;51.824;4.682;2023-02-07T02:43:55;4.88;;;2.40;;
41115;SDS011;26861;51.824;4.682;2023-02-07T02:46:35;4.90;;;2.65;;
41115;SDS011;26861;51.824;4.682;2023-02-07T02:49:06;3.67;;;2.05;;
41115;SDS011;26861;51.824;4.682;2023-02-07T02:51:35;3.58;;;1.85;;
41115;SDS011;26861;51.824;4.682;2023-02-07T02:54:00;5.00;;;2.00;;
41115;SDS011;26861;51.824;4.682;2023-02-07T03:04:36;3.17;;;2.08;;
41115;SDS011;26861;51.824;4.682;2023-02-07T03:16:14;2.80;;;1.80;;
41115;SDS011;26861;51.824;4.682;2023-02-07T03:18:30;3.25;;;2.15;;
41115;SDS011;26861;51.824;4.682;2023-02-07T03:21:14;3.15;;;2.00;;
41115;SDS011;26861;51.824;4.682;2023-02-07T03:23:49;4.35;;;2.03;;
41115;SDS011;26861;51.824;4.682;2023-02-07T03:26:17;3.22;;;1.67;;
41115;SDS011;26861;51.824;4.682;2023-02-07T03:28:45;3.30;;;1.90;;
41115;SDS011;26861;51.824;4.682;2023-02-07T03:31:14;2.67;;;1.83;;
41115;SDS011;26861;51.824;4.682;2023-02-07T03:33:43;3.63;;;1.93;;
41115;SDS011;26861;51.824;4.682;2023-02-07T03:36:16;2.75;;;1.73;;
41115;SDS011;26861;51.824;4.682;2023-02-07T03:38:47;2.50;;;2.00;;
41115;SDS011;26861;51.824;4.682;2023-02-07T03:41:15;3.90;;;2.15;;
41115;SDS011;26861;51.824;4.682;2023-02-07T03:43:45;2.45;;;1.60;;
41115;SDS011;26861;51.824;4.682;2023-02-07T03:46:11;3.67;;;2.20;;
41115;SDS011;26861;51.824;4.682;2023-02-07T03:48:37;2.88;;;1.67;;
41115;SDS011;26861;51.824;4.682;2023-02-07T03:51:03;3.70;;;1.80;;
41115;SDS011;26861;51.824;4.682;2023-02-07T03:53:29;4.07;;;2.08;;
41115;SDS011;26861;51.824;4.682;2023-02-07T03:55:54;3.05;;;1.83;;
41115;SDS011;26861;51.824;4.682;2023-02-07T03:58:20;3.40;;;1.80;;
41115;SDS011;26861;51.824;4.682;2023-02-07T04:00:45;2.20;;;1.80;;
41115;SDS011;26861;51.824;4.682;2023-02-07T04:03:11;3.10;;;1.92;;
41115;SDS011;26861;51.824;4.682;2023-02-07T04:05:37;3.00;;;1.60;;
41115;SDS011;26861;51.824;4.682;2023-02-07T04:08:02;3.15;;;1.88;;
41115;SDS011;26861;51.824;4.682;2023-02-07T04:10:28;1.90;;;1.40;;
41115;SDS011;26861;51.824;4.682;2023-02-07T04:12:54;2.35;;;2.00;;
41115;SDS011;26861;51.824;4.682;2023-02-07T04:15:19;2.50;;;1.42;;
41115;SDS011;26861;51.824;4.682;2023-02-07T04:17:45;2.78;;;1.63;;
41115;SDS011;26861;51.824;4.682;2023-02-07T04:20:11;2.67;;;1.92;;
41115;SDS011;26861;51.824;4.682;2023-02-07T04:22:37;1.65;;;1.45;;
41115;SDS011;26861;51.824;4.682;2023-02-07T04:25:02;2.88;;;1.65;;
41115;SDS011;26861;51.824;4.682;2023-02-07T04:27:28;2.95;;;1.60;;
41115;SDS011;26861;51.824;4.682;2023-02-07T04:29:54;2.75;;;1.50;;
41115;SDS011;26861;51.824;4.682;2023-02-07T04:32:20;2.92;;;1.80;;
41115;SDS011;26861;51.824;4.682;2023-02-07T04:34:46;1.83;;;1.25;;
41115;SDS011;26861;51.824;4.682;2023-02-07T04:37:11;2.83;;;1.42;;
41115;SDS011;26861;51.824;4.682;2023-02-07T04:39:37;2.22;;;1.70;;
41115;SDS011;26861;51.824;4.682;2023-02-07T04:42:03;2.67;;;1.50;;
41115;SDS011;26861;51.824;4.682;2023-02-07T04:44:28;3.17;;;1.73;;
41115;SDS011;26861;51.824;4.682;2023-02-07T04:46:55;2.10;;;1.63;;
41115;SDS011;26861;51.824;4.682;2023-02-07T04:49:20;1.73;;;1.20;;
41115;SDS011;26861;51.824;4.682;2023-02-07T04:51:46;2.47;;;1.63;;
41115;SDS011;26861;51.824;4.682;2023-02-07T04:54:12;2.08;;;1.48;;
41115;SDS011;26861;51.824;4.682;2023-02-07T04:56:38;2.30;;;1.40;;
41115;SDS011;26861;51.824;4.682;2023-02-07T04:59:03;2.05;;;1.63;;
41115;SDS011;26861;51.824;4.682;2023-02-07T05:01:29;2.20;;;1.52;;
41115;SDS011;26861;51.824;4.682;2023-02-07T05:03:55;2.17;;;1.90;;
41115;SDS011;26861;51.824;4.682;2023-02-07T05:06:20;2.90;;;1.65;;
41115;SDS011;26861;51.824;4.682;2023-02-07T05:08:46;5.13;;;1.92;;
41115;SDS011;26861;51.824;4.682;2023-02-07T05:11:11;2.50;;;1.55;;
41115;SDS011;26861;51.824;4.682;2023-02-07T05:13:37;2.40;;;1.50;;
41115;SDS011;26861;51.824;4.682;2023-02-07T05:16:03;2.92;;;1.67;;
41115;SDS011;26861;51.824;4.682;2023-02-07T05:18:29;2.53;;;1.40;;
41115;SDS011;26861;51.824;4.682;2023-02-07T05:20:56;1.40;;;1.20;;
41115;SDS011;26861;51.824;4.682;2023-02-07T05:23:22;2.83;;;1.70;;
41115;SDS011;26861;51.824;4.682;2023-02-07T05:25:47;2.83;;;1.73;;
41115;SDS011;26861;51.824;4.682;2023-02-07T05:28:13;2.63;;;1.58;;
41115;SDS011;26861;51.824;4.682;2023-02-07T05:30:39;2.05;;;1.50;;
41115;SDS011;26861;51.824;4.682;2023-02-07T05:33:05;2.75;;;1.65;;
41115;SDS011;26861;51.824;4.682;2023-02-07T05:35:35;2.75;;;1.60;;
41115;SDS011;26861;51.824;4.682;2023-02-07T05:38:02;1.95;;;1.75;;
41115;SDS011;26861;51.824;4.682;2023-02-07T05:40:31;2.78;;;2.22;;
41115;SDS011;26861;51.824;4.682;2023-02-07T05:42:57;3.17;;;2.88;;
41115;SDS011;26861;51.824;4.682;2023-02-07T05:45:23;4.32;;;4.03;;
41115;SDS011;26861;51.824;4.682;2023-02-07T05:47:49;6.05;;;5.55;;
41115;SDS011;26861;51.824;4.682;2023-02-07T05:50:15;8.02;;;7.32;;
41115;SDS011;26861;51.824;4.682;2023-02-07T05:52:41;10.32;;;9.35;;
41115;SDS011;26861;51.824;4.682;2023-02-07T05:55:07;12.18;;;11.18;;
41115;SDS011;26861;51.824;4.682;2023-02-07T05:57:33;15.18;;;13.88;;
41115;SDS011;26861;51.824;4.682;2023-02-07T05:59:59;18.00;;;16.45;;
41115;SDS011;26861;51.824;4.682;2023-02-07T06:02:24;21.33;;;19.50;;
41115;SDS011;26861;51.824;4.682;2023-02-07T06:04:50;24.20;;;22.20;;
41115;SDS011;26861;51.824;4.682;2023-02-07T06:07:16;24.15;;;22.15;;
41115;SDS011;26861;51.824;4.682;2023-02-07T06:09:41;27.80;;;25.33;;
41115;SDS011;26861;51.824;4.682;2023-02-07T06:12:07;29.05;;;26.45;;
41115;SDS011;26861;51.824;4.682;2023-02-07T06:14:33;30.25;;;27.70;;
41115;SDS011;26861;51.824;4.682;2023-02-07T06:16:58;33.40;;;30.40;;
41115;SDS011;26861;51.824;4.682;2023-02-07T06:19:24;33.67;;;30.73;;
41115;SDS011;26861;51.824;4.682;2023-02-07T06:21:49;34.58;;;31.65;;
41115;SDS011;26861;51.824;4.682;2023-02-07T06:24:15;35.97;;;32.78;;
41115;SDS011;26861;51.824;4.682;2023-02-07T06:26:41;34.28;;;31.30;;
41115;SDS011;26861;51.824;4.682;2023-02-07T06:29:07;33.38;;;30.48;;
41115;SDS011;26861;51.824;4.682;2023-02-07T06:31:32;34.42;;;31.17;;
41115;SDS011;26861;51.824;4.682;2023-02-07T06:33:58;32.00;;;29.20;;
41115;SDS011;26861;51.824;4.682;2023-02-07T06:36:23;30.95;;;28.20;;
41115;SDS011;26861;51.824;4.682;2023-02-07T06:38:49;31.30;;;28.50;;
41115;SDS011;26861;51.824;4.682;2023-02-07T06:41:18;29.90;;;27.20;;
41115;SDS011;26861;51.824;4.682;2023-02-07T06:43:44;27.48;;;24.98;;
41115;SDS011;26861;51.824;4.682;2023-02-07T06:46:10;27.92;;;25.33;;
41115;SDS011;26861;51.824;4.682;2023-02-07T06:48:35;28.77;;;26.13;;
41115;SDS011;26861;51.824;4.682;2023-02-07T06:51:01;26.10;;;23.75;;
41115;SDS011;26861;51.824;4.682;2023-02-07T06:53:26;25.42;;;23.02;;
41115;SDS011;26861;51.824;4.682;2023-02-07T06:55:53;24.30;;;22.08;;
41115;SDS011;26861;51.824;4.682;2023-02-07T06:58:19;22.67;;;20.35;;
41115;SDS011;26861;51.824;4.682;2023-02-07T07:00:45;23.58;;;21.52;;
41115;SDS011;26861;51.824;4.682;2023-02-07T07:03:12;22.27;;;20.13;;
41115;SDS011;26861;51.824;4.682;2023-02-07T07:05:40;21.45;;;19.38;;
41115;SDS011;26861;51.824;4.682;2023-02-07T07:08:07;19.98;;;18.08;;
41115;SDS011;26861;51.824;4.682;2023-02-07T07:10:33;19.63;;;17.92;;
41115;SDS011;26861;51.824;4.682;2023-02-07T07:12:59;19.65;;;17.80;;
41115;SDS011;26861;51.824;4.682;2023-02-07T07:15:24;18.05;;;16.25;;
41115;SDS011;26861;51.824;4.682;2023-02-07T07:17:50;18.75;;;16.95;;
41115;SDS011;26861;51.824;4.682;2023-02-07T07:20:16;18.45;;;16.55;;
41115;SDS011;26861;51.824;4.682;2023-02-07T07:22:41;16.38;;;14.73;;
41115;SDS011;26861;51.824;4.682;2023-02-07T07:25:07;15.63;;;14.07;;
41115;SDS011;26861;51.824;4.682;2023-02-07T07:27:33;16.42;;;13.63;;
41115;SDS011;26861;51.824;4.682;2023-02-07T07:30:00;14.45;;;12.48;;
41115;SDS011;26861;51.824;4.682;2023-02-07T07:32:25;14.77;;;13.05;;
41115;SDS011;26861;51.824;4.682;2023-02-07T07:34:51;14.07;;;12.25;;
41115;SDS011;26861;51.824;4.682;2023-02-07T07:37:19;14.00;;;12.25;;
41115;SDS011;26861;51.824;4.682;2023-02-07T07:39:44;14.63;;;11.98;;
41115;SDS011;26861;51.824;4.682;2023-02-07T07:42:11;11.88;;;10.68;;
41115;SDS011;26861;51.824;4.682;2023-02-07T07:44:36;13.35;;;11.13;;
41115;SDS011;26861;51.824;4.682;2023-02-07T07:47:02;11.27;;;9.80;;
41115;SDS011;26861;51.824;4.682;2023-02-07T07:49:28;12.45;;;10.63;;
41115;SDS011;26861;51.824;4.682;2023-02-07T07:51:54;9.90;;;8.85;;
41115;SDS011;26861;51.824;4.682;2023-02-07T07:54:19;11.43;;;9.63;;
41115;SDS011;26861;51.824;4.682;2023-02-07T07:56:45;11.30;;;8.95;;
41115;SDS011;26861;51.824;4.682;2023-02-07T07:59:11;9.25;;;8.35;;
41115;SDS011;26861;51.824;4.682;2023-02-07T08:01:36;8.77;;;7.82;;
41115;SDS011;26861;51.824;4.682;2023-02-07T08:04:02;9.70;;;8.50;;
41115;SDS011;26861;51.824;4.682;2023-02-07T08:06:28;8.43;;;7.18;;
41115;SDS011;26861;51.824;4.682;2023-02-07T08:08:54;8.88;;;7.53;;
41115;SDS011;26861;51.824;4.682;2023-02-07T08:11:20;8.23;;;6.82;;
41115;SDS011;26861;51.824;4.682;2023-02-07T08:13:46;8.73;;;7.20;;
41115;SDS011;26861;51.824;4.682;2023-02-07T08:16:13;7.88;;;6.75;;
41115;SDS011;26861;51.824;4.682;2023-02-07T08:18:39;8.55;;;7.05;;
41115;SDS011;26861;51.824;4.682;2023-02-07T08:21:04;8.07;;;6.53;;
41115;SDS011;26861;51.824;4.682;2023-02-07T08:23:30;8.30;;;6.68;;
41115;SDS011;26861;51.824;4.682;2023-02-07T08:25:56;6.78;;;5.97;;
41115;SDS011;26861;51.824;4.682;2023-02-07T08:28:21;9.07;;;6.65;;
41115;SDS011;26861;51.824;4.682;2023-02-07T08:30:47;6.55;;;5.30;;
41115;SDS011;26861;51.824;4.682;2023-02-07T08:33:13;7.18;;;5.88;;
41115;SDS011;26861;51.824;4.682;2023-02-07T08:35:40;6.38;;;5.32;;
41115;SDS011;26861;51.824;4.682;2023-02-07T08:38:06;7.35;;;5.82;;
41115;SDS011;26861;51.824;4.682;2023-02-07T08:40:32;6.90;;;5.53;;
41115;SDS011;26861;51.824;4.682;2023-02-07T08:42:58;7.63;;;5.55;;
41115;SDS011;26861;51.824;4.682;2023-02-07T08:45:24;7.78;;;5.57;;
41115;SDS011;26861;51.824;4.682;2023-02-07T08:47:50;6.28;;;5.10;;
41115;SDS011;26861;51.824;4.682;2023-02-07T08:50:16;6.10;;;4.88;;
41115;SDS011;26861;51.824;4.682;2023-02-07T08:52:43;6.28;;;4.50;;
41115;SDS011;26861;51.824;4.682;2023-02-07T08:55:09;5.43;;;4.60;;
41115;SDS011;26861;51.824;4.682;2023-02-07T08:57:35;6.72;;;5.25;;
41115;SDS011;26861;51.824;4.682;2023-02-07T09:00:02;4.90;;;4.30;;
41115;SDS011;26861;51.824;4.682;2023-02-07T09:02:30;6.18;;;4.20;;
41115;SDS011;26861;51.824;4.682;2023-02-07T09:04:55;6.13;;;5.05;;
41115;SDS011;26861;51.824;4.682;2023-02-07T09:07:21;6.03;;;4.68;;
41115;SDS011;26861;51.824;4.682;2023-02-07T09:09:47;7.32;;;5.22;;
41115;SDS011;26861;51.824;4.682;2023-02-07T09:12:12;4.70;;;4.20;;
41115;SDS011;26861;51.824;4.682;2023-02-07T09:14:38;6.25;;;4.57;;
41115;SDS011;26861;51.824;4.682;2023-02-07T09:17:05;5.32;;;4.43;;
41115;SDS011;26861;51.824;4.682;2023-02-07T09:19:31;7.05;;;4.45;;
41115;SDS011;26861;51.824;4.682;2023-02-07T09:21:57;5.40;;;4.18;;
41115;SDS011;26861;51.824;4.682;2023-02-07T09:24:23;6.93;;;4.50;;
41115;SDS011;26861;51.824;4.682;2023-02-07T09:26:48;6.15;;;4.18;;
41115;SDS011;26861;51.824;4.682;2023-02-07T09:29:14;6.32;;;4.50;;
41115;SDS011;26861;51.824;4.682;2023-02-07T09:31:40;7.22;;;4.40;;
41115;SDS011;26861;51.824;4.682;2023-02-07T09:34:06;4.57;;;3.72;;
41115;SDS011;26861;51.824;4.682;2023-02-07T09:36:32;5.80;;;4.15;;
41115;SDS011;26861;51.824;4.682;2023-02-07T09:38:58;5.20;;;4.35;;
41115;SDS011;26861;51.824;4.682;2023-02-07T09:47:13;4.25;;;3.72;;
41115;SDS011;26861;51.824;4.682;2023-02-07T09:52:27;4.47;;;3.72;;
41115;SDS011;26861;51.824;4.682;2023-02-07T09:55:02;5.05;;;3.85;;
41115;SDS011;26861;51.824;4.682;2023-02-07T10:05:51;5.70;;;3.67;;
41115;SDS011;26861;51.824;4.682;2023-02-07T10:08:26;4.65;;;3.50;;
41115;SDS011;26861;51.824;4.682;2023-02-07T10:19:12;7.72;;;5.10;;
41115;SDS011;26861;51.824;4.682;2023-02-07T10:24:46;6.72;;;5.05;;
41115;SDS011;26861;51.824;4.682;2023-02-07T10:27:57;7.53;;;5.15;;
41115;SDS011;26861;51.824;4.682;2023-02-07T10:30:26;7.25;;;4.95;;
41115;SDS011;26861;51.824;4.682;2023-02-07T10:32:58;6.50;;;4.43;;
41115;SDS011;26861;51.824;4.682;2023-02-07T10:35:29;8.05;;;4.80;;
41115;SDS011;26861;51.824;4.682;2023-02-07T10:37:59;8.90;;;4.47;;
41115;SDS011;26861;51.824;4.682;2023-02-07T10:40:34;7.18;;;4.50;;
41115;SDS011;26861;51.824;4.682;2023-02-07T10:43:09;5.33;;;4.13;;
41115;SDS011;26861;51.824;4.682;2023-02-07T10:45:43;7.32;;;4.75;;
41115;SDS011;26861;51.824;4.682;2023-02-07T10:48:15;6.75;;;4.93;;
41115;SDS011;26861;51.824;4.682;2023-02-07T10:50:43;6.55;;;4.47;;
41115;SDS011;26861;51.824;4.682;2023-02-07T10:53:09;5.15;;;4.22;;
41115;SDS011;26861;51.824;4.682;2023-02-07T10:58:15;6.97;;;4.90;;
41115;SDS011;26861;51.824;4.682;2023-02-07T11:00:42;5.90;;;4.55;;
41115;SDS011;26861;51.824;4.682;2023-02-07T11:03:13;6.80;;;4.78;;
41115;SDS011;26861;51.824;4.682;2023-02-07T11:08:24;7.03;;;4.88;;
41115;SDS011;26861;51.824;4.682;2023-02-07T11:10:55;5.65;;;4.55;;
41115;SDS011;26861;51.824;4.682;2023-02-07T11:13:23;6.15;;;4.18;;
41115;SDS011;26861;51.824;4.682;2023-02-07T11:18:25;7.30;;;4.55;;
41115;SDS011;26861;51.824;4.682;2023-02-07T11:30:06;5.25;;;4.20;;
41115;SDS011;26861;51.824;4.682;2023-02-07T11:32:27;4.55;;;3.78;;
41115;SDS011;26861;51.824;4.682;2023-02-07T11:34:55;5.65;;;4.28;;
41115;SDS011;26861;51.824;4.682;2023-02-07T11:39:48;6.95;;;4.40;;
41115;SDS011;26861;51.824;4.682;2023-02-07T11:42:21;5.55;;;4.53;;
41115;SDS011;26861;51.824;4.682;2023-02-07T11:44:50;6.68;;;4.28;;
41115;SDS011;26861;51.824;4.682;2023-02-07T11:47:21;5.28;;;4.22;;
41115;SDS011;26861;51.824;4.682;2023-02-07T11:49:56;5.40;;;4.05;;
41115;SDS011;26861;51.824;4.682;2023-02-07T11:52:24;5.65;;;4.47;;
41115;SDS011;26861;51.824;4.682;2023-02-07T11:54:55;7.18;;;4.72;;
41115;SDS011;26861;51.824;4.682;2023-02-07T11:57:24;6.95;;;4.90;;
41115;SDS011;26861;51.824;4.682;2023-02-07T12:02:27;5.03;;;3.90;;
41115;SDS011;26861;51.824;4.682;2023-02-07T12:04:54;4.57;;;3.72;;
41115;SDS011;26861;51.824;4.682;2023-02-07T12:07:33;4.95;;;3.92;;
41115;SDS011;26861;51.824;4.682;2023-02-07T12:10:08;4.18;;;3.75;;
41115;SDS011;26861;51.824;4.682;2023-02-07T12:12:39;5.43;;;3.85;;
41115;SDS011;26861;51.824;4.682;2023-02-07T12:15:16;4.53;;;3.60;;
41115;SDS011;26861;51.824;4.682;2023-02-07T12:20:46;5.82;;;3.70;;
41115;SDS011;26861;51.824;4.682;2023-02-07T12:23:36;6.53;;;4.50;;
41115;SDS011;26861;51.824;4.682;2023-02-07T12:26:17;4.28;;;3.65;;
41115;SDS011;26861;51.824;4.682;2023-02-07T12:28:53;5.45;;;3.70;;
41115;SDS011;26861;51.824;4.682;2023-02-07T12:34:18;5.65;;;3.55;;
41115;SDS011;26861;51.824;4.682;2023-02-07T12:36:58;4.00;;;3.60;;
41115;SDS011;26861;51.824;4.682;2023-02-07T12:39:37;4.68;;;3.33;;
41115;SDS011;26861;51.824;4.682;2023-02-07T12:44:57;4.10;;;3.35;;
41115;SDS011;26861;51.824;4.682;2023-02-07T12:58:29;3.88;;;3.05;;
41115;SDS011;26861;51.824;4.682;2023-02-07T13:09:14;3.97;;;3.17;;
41115;SDS011;26861;51.824;4.682;2023-02-07T13:12:24;3.67;;;2.60;;
41115;SDS011;26861;51.824;4.682;2023-02-07T13:14:59;4.38;;;2.95;;
41115;SDS011;26861;51.824;4.682;2023-02-07T13:23:09;3.15;;;2.53;;
41115;SDS011;26861;51.824;4.682;2023-02-07T13:25:42;3.78;;;2.90;;
41115;SDS011;26861;51.824;4.682;2023-02-07T13:28:11;2.78;;;2.58;;
41115;SDS011;26861;51.824;4.682;2023-02-07T13:35:52;3.00;;;2.65;;
41115;SDS011;26861;51.824;4.682;2023-02-07T13:38:25;4.07;;;2.92;;
41115;SDS011;26861;51.824;4.682;2023-02-07T13:41:38;3.47;;;2.72;;
41115;SDS011;26861;51.824;4.682;2023-02-07T13:47:04;2.95;;;2.63;;
41115;SDS011;26861;51.824;4.682;2023-02-07T13:54:54;4.00;;;2.90;;
41115;SDS011;26861;51.824;4.682;2023-02-07T14:00:21;2.67;;;2.38;;
41115;SDS011;26861;51.824;4.682;2023-02-07T14:02:53;3.15;;;2.38;;
41115;SDS011;26861;51.824;4.682;2023-02-07T14:05:30;2.60;;;2.40;;
41115;SDS011;26861;51.824;4.682;2023-02-07T14:18:39;2.47;;;2.28;;
41115;SDS011;26861;51.824;4.682;2023-02-07T14:23:57;2.40;;;2.20;;
41115;SDS011;26861;51.824;4.682;2023-02-07T14:31:49;5.88;;;2.20;;
41115;SDS011;26861;51.824;4.682;2023-02-07T14:34:57;3.03;;;2.72;;
41115;SDS011;26861;51.824;4.682;2023-02-07T14:43:17;2.70;;;2.40;;
41115;SDS011;26861;51.824;4.682;2023-02-07T14:54:04;3.00;;;2.15;;
41115;SDS011;26861;51.824;4.682;2023-02-07T14:56:47;2.60;;;1.95;;
41115;SDS011;26861;51.824;4.682;2023-02-07T14:59:34;3.08;;;2.30;;
41115;SDS011;26861;51.824;4.682;2023-02-07T15:02:28;2.60;;;1.85;;
41115;SDS011;26861;51.824;4.682;2023-02-07T15:04:56;4.03;;;2.25;;
41115;SDS011;26861;51.824;4.682;2023-02-07T15:07:23;2.22;;;1.98;;
41115;SDS011;26861;51.824;4.682;2023-02-07T15:09:49;3.92;;;2.13;;
41115;SDS011;26861;51.824;4.682;2023-02-07T15:12:18;2.88;;;1.90;;
41115;SDS011;26861;51.824;4.682;2023-02-07T15:14:50;2.53;;;2.28;;
41115;SDS011;26861;51.824;4.682;2023-02-07T15:17:21;5.30;;;2.60;;
41115;SDS011;26861;51.824;4.682;2023-02-07T15:19:49;3.55;;;2.20;;
41115;SDS011;26861;51.824;4.682;2023-02-07T15:22:23;6.28;;;2.45;;
41115;SDS011;26861;51.824;4.682;2023-02-07T15:24:54;2.70;;;1.90;;
41115;SDS011;26861;51.824;4.682;2023-02-07T15:27:22;7.78;;;2.10;;
41115;SDS011;26861;51.824;4.682;2023-02-07T15:29:57;3.80;;;2.20;;
41115;SDS011;26861;51.824;4.682;2023-02-07T15:32:26;2.33;;;2.03;;
41115;SDS011;26861;51.824;4.682;2023-02-07T15:34:57;2.75;;;2.30;;
41115;SDS011;26861;51.824;4.682;2023-02-07T15:37:36;3.03;;;1.90;;
41115;SDS011;26861;51.824;4.682;2023-02-07T15:40:02;2.30;;;2.10;;
41115;SDS011;26861;51.824;4.682;2023-02-07T15:42:28;2.40;;;1.95;;
41115;SDS011;26861;51.824;4.682;2023-02-07T15:44:55;2.58;;;2.15;;
41115;SDS011;26861;51.824;4.682;2023-02-07T15:49:57;2.88;;;2.20;;
41115;SDS011;26861;51.824;4.682;2023-02-07T15:52:28;3.25;;;2.00;;
41115;SDS011;26861;51.824;4.682;2023-02-07T15:55:17;3.55;;;2.78;;
41115;SDS011;26861;51.824;4.682;2023-02-07T15:58:14;2.95;;;2.00;;
41115;SDS011;26861;51.824;4.682;2023-02-07T16:01:03;2.85;;;1.98;;
41115;SDS011;26861;51.824;4.682;2023-02-07T16:03:35;1.88;;;1.63;;
41115;SDS011;26861;51.824;4.682;2023-02-07T16:06:16;2.55;;;1.75;;
41115;SDS011;26861;51.824;4.682;2023-02-07T16:08:47;3.33;;;1.83;;
41115;SDS011;26861;51.824;4.682;2023-02-07T16:14:00;2.03;;;1.48;;
41115;SDS011;26861;51.824;4.682;2023-02-07T16:16:35;2.05;;;1.85;;
41115;SDS011;26861;51.824;4.682;2023-02-07T16:21:42;2.00;;;1.65;;
41115;SDS011;26861;51.824;4.682;2023-02-07T16:24:17;2.50;;;1.95;;
41115;SDS011;26861;51.824;4.682;2023-02-07T16:26:45;2.88;;;1.73;;
41115;SDS011;26861;51.824;4.682;2023-02-07T16:29:16;3.20;;;1.70;;
41115;SDS011;26861;51.824;4.682;2023-02-07T16:31:45;1.73;;;1.63;;
41115;SDS011;26861;51.824;4.682;2023-02-07T16:34:12;2.60;;;2.13;;
41115;SDS011;26861;51.824;4.682;2023-02-07T16:36:38;3.38;;;1.70;;
41115;SDS011;26861;51.824;4.682;2023-02-07T16:39:04;2.35;;;1.90;;
41115;SDS011;26861;51.824;4.682;2023-02-07T16:41:31;2.28;;;1.70;;
41115;SDS011;26861;51.824;4.682;2023-02-07T16:43:59;2.25;;;1.92;;
41115;SDS011;26861;51.824;4.682;2023-02-07T16:46:26;2.30;;;2.10;;
41115;SDS011;26861;51.824;4.682;2023-02-07T16:48:52;1.77;;;1.60;;
41115;SDS011;26861;51.824;4.682;2023-02-07T16:51:18;1.92;;;1.80;;
41115;SDS011;26861;51.824;4.682;2023-02-07T16:53:43;3.13;;;1.83;;
41115;SDS011;26861;51.824;4.682;2023-02-07T16:56:11;2.92;;;2.03;;
41115;SDS011;26861;51.824;4.682;2023-02-07T16:58:43;1.67;;;1.48;;
41115;SDS011;26861;51.824;4.682;2023-02-07T17:01:11;1.88;;;1.58;;
41115;SDS011;26861;51.824;4.682;2023-02-07T17:03:41;3.17;;;1.85;;
41115;SDS011;26861;51.824;4.682;2023-02-07T17:06:14;2.17;;;1.85;;
41115;SDS011;26861;51.824;4.682;2023-02-07T17:08:42;2.53;;;1.95;;
41115;SDS011;26861;51.824;4.682;2023-02-07T17:11:15;2.35;;;1.65;;
41115;SDS011;26861;51.824;4.682;2023-02-07T17:13:58;1.83;;;1.67;;
41115;SDS011;26861;51.824;4.682;2023-02-07T17:16:25;1.55;;;1.33;;
41115;SDS011;26861;51.824;4.682;2023-02-07T17:18:51;1.77;;;1.67;;
41115;SDS011;26861;51.824;4.682;2023-02-07T17:21:17;1.60;;;1.50;;
41115;SDS011;26861;51.824;4.682;2023-02-07T17:23:46;1.98;;;1.88;;
41115;SDS011;26861;51.824;4.682;2023-02-07T17:26:23;2.58;;;2.00;;
41115;SDS011;26861;51.824;4.682;2023-02-07T17:28:51;2.60;;;1.70;;
41115;SDS011;26861;51.824;4.682;2023-02-07T17:31:17;2.50;;;1.95;;
41115;SDS011;26861;51.824;4.682;2023-02-07T17:33:43;2.70;;;1.92;;
41115;SDS011;26861;51.824;4.682;2023-02-07T17:36:10;1.85;;;1.65;;
41115;SDS011;26861;51.824;4.682;2023-02-07T17:38:38;2.40;;;1.70;;
41115;SDS011;26861;51.824;4.682;2023-02-07T17:41:04;2.33;;;1.60;;
41115;SDS011;26861;51.824;4.682;2023-02-07T17:43:32;2.00;;;1.83;;
41115;SDS011;26861;51.824;4.682;2023-02-07T17:45:58;2.08;;;1.80;;
41115;SDS011;26861;51.824;4.682;2023-02-07T17:48:24;2.10;;;1.90;;